createdAt,value
2018-06-05T00:00:10.318Z,9.40
2018-06-05T00:02:42.738Z,9.50
2018-06-05T00:05:17.981Z,8.30
2018-06-05T00:07:52.260Z,8.90
2018-06-05T00:12:55.892Z,6.70
2018-06-05T00:15:28.190Z,10.50
2018-06-05T00:18:00.395Z,9.90
2018-06-05T00:20:32.979Z,8.00
2018-06-05T00:23:05.500Z,8.60
2018-06-05T00:25:39.123Z,9.00
2018-06-05T00:28:11.485Z,9.50
2018-06-05T00:30:44.094Z,10.40
2018-06-05T00:33:17.436Z,10.20
2018-06-05T00:35:49.826Z,10.20
2018-06-05T00:38:23.252Z,10.50
2018-06-05T00:40:57.264Z,10.10
2018-06-05T00:43:29.640Z,9.40
2018-06-05T00:46:01.841Z,9.30
2018-06-05T00:48:34.177Z,9.90
2018-06-05T00:51:12.512Z,10.00
2018-06-05T00:53:44.898Z,10.90
2018-06-05T00:56:17.596Z,10.50
2018-06-05T00:58:49.840Z,11.80
2018-06-05T01:01:22.150Z,13.90
2018-06-05T01:03:54.544Z,12.20
2018-06-05T01:06:26.727Z,11.90
2018-06-05T01:09:00.030Z,11.40
2018-06-05T01:11:32.583Z,11.50
2018-06-05T01:14:05.006Z,12.90
2018-06-05T01:16:37.298Z,12.50
2018-06-05T01:19:14.035Z,11.30
2018-06-05T01:21:48.801Z,11.20
2018-06-05T01:24:21.433Z,14.30
2018-06-05T01:26:53.951Z,11.60
2018-06-05T01:29:26.338Z,13.10
2018-06-05T01:31:59.701Z,12.30
2018-06-05T01:34:32.111Z,13.10
2018-06-05T01:37:04.304Z,11.20
2018-06-05T01:39:36.818Z,12.20
2018-06-05T01:42:09.251Z,13.00
2018-06-05T01:44:42.541Z,14.00
2018-06-05T01:47:14.776Z,14.20
2018-06-05T01:49:47.076Z,13.00
2018-06-05T01:52:19.314Z,13.20
2018-06-05T01:54:51.604Z,13.10
2018-06-05T01:57:23.739Z,15.50
2018-06-05T01:59:55.961Z,13.10
2018-06-05T02:02:28.323Z,14.50
2018-06-05T02:05:00.537Z,12.70
2018-06-05T02:07:33.021Z,12.70
2018-06-05T02:10:05.399Z,11.30
2018-06-05T02:12:37.493Z,11.90
2018-06-05T02:15:12.895Z,12.30
2018-06-05T02:17:45.168Z,13.00
2018-06-05T02:20:17.598Z,12.40
2018-06-05T02:22:50.415Z,12.80
2018-06-05T02:25:24.121Z,13.70
2018-06-05T02:27:58.954Z,13.40
2018-06-05T02:30:33.500Z,12.80
2018-06-05T02:33:05.354Z,13.00
2018-06-05T02:35:37.325Z,13.70
2018-06-05T02:38:15.170Z,12.80
2018-06-05T02:40:47.320Z,13.50
2018-06-05T02:43:19.397Z,14.20
2018-06-05T02:45:51.650Z,11.90
2018-06-05T02:48:24.508Z,12.60
2018-06-05T02:50:56.585Z,11.90
2018-06-05T02:53:29.062Z,11.60
2018-06-05T02:58:32.536Z,10.00
2018-06-05T03:01:09.497Z,10.80
2018-06-05T03:03:41.896Z,10.10
2018-06-05T03:06:13.767Z,10.40
2018-06-05T03:08:46.180Z,9.90
2018-06-05T03:11:19.129Z,10.10
2018-06-05T03:13:52.016Z,10.20
2018-06-05T03:16:28.240Z,10.70
2018-06-05T03:19:00.364Z,9.40
2018-06-05T03:21:32.546Z,8.90
2018-06-05T03:24:05.864Z,9.50
2018-06-05T03:26:38.090Z,8.50
2018-06-05T03:29:10.417Z,8.50
2018-06-05T03:31:42.999Z,8.90
2018-06-05T03:34:15.480Z,8.40
2018-06-05T03:36:51.694Z,8.70
2018-06-05T03:39:24.936Z,9.20
2018-06-05T03:41:57.332Z,10.10
2018-06-05T03:44:29.868Z,9.70
2018-06-05T03:47:02.272Z,10.30
2018-06-05T03:49:39.084Z,10.50
2018-06-05T03:52:11.968Z,10.50
2018-06-05T03:54:44.267Z,10.70
2018-06-05T03:57:16.885Z,11.20
2018-06-05T03:59:49.630Z,12.70
2018-06-05T04:02:22.657Z,12.40
2018-06-05T04:04:54.798Z,13.10
2018-06-05T04:07:27.235Z,12.30
2018-06-05T04:09:59.768Z,12.40
2018-06-05T04:12:31.916Z,13.80
2018-06-05T04:15:04.236Z,13.90
2018-06-05T04:17:36.623Z,13.90
2018-06-05T04:20:08.807Z,15.00
2018-06-05T04:22:41.422Z,14.30
2018-06-05T04:25:14.136Z,14.30
2018-06-05T04:27:46.983Z,14.50
2018-06-05T04:30:20.299Z,14.20
2018-06-05T04:32:52.843Z,15.20
2018-06-05T04:35:25.252Z,14.40
2018-06-05T04:37:57.545Z,14.70
2018-06-05T04:40:29.306Z,14.50
2018-06-05T04:43:01.735Z,15.40
2018-06-05T04:45:33.816Z,15.50
2018-06-05T04:48:06.286Z,15.40
2018-06-05T04:50:38.647Z,16.30
2018-06-05T04:53:10.848Z,16.50
2018-06-05T04:55:43.125Z,16.10
2018-06-05T04:58:15.317Z,16.20
2018-06-05T05:00:47.482Z,16.70
2018-06-05T05:03:19.859Z,16.30
2018-06-05T05:05:52.601Z,16.50
2018-06-05T05:08:24.810Z,17.60
2018-06-05T05:10:56.973Z,16.80
2018-06-05T05:13:29.466Z,17.60
2018-06-05T05:16:01.842Z,18.10
2018-06-05T05:18:34.387Z,17.10
2018-06-05T05:23:38.602Z,18.10
2018-06-05T05:26:11.613Z,18.70
2018-06-05T05:28:43.983Z,17.90
2018-06-05T05:31:16.505Z,18.30
2018-06-05T05:33:48.905Z,18.40
2018-06-05T05:36:21.485Z,19.30
2018-06-05T05:38:53.861Z,18.30
2018-06-05T05:41:26.197Z,18.80
2018-06-05T05:43:59.036Z,19.40
2018-06-05T05:46:31.326Z,19.10
2018-06-05T05:49:03.708Z,19.00
2018-06-05T05:51:35.796Z,19.20
2018-06-05T05:54:08.441Z,19.70
2018-06-05T05:56:40.540Z,20.30
2018-06-05T05:59:12.641Z,21.10
2018-06-05T06:01:45.172Z,21.20
2018-06-05T06:04:17.798Z,21.40
2018-06-05T06:06:49.938Z,21.60
2018-06-05T06:09:22.542Z,22.20
2018-06-05T06:11:54.697Z,22.60
2018-06-05T06:14:27.303Z,22.60
2018-06-05T06:16:59.606Z,23.10
2018-06-05T06:19:32.551Z,23.80
2018-06-05T06:24:35.783Z,24.80
2018-06-05T06:27:08.088Z,25.70
2018-06-05T06:29:40.480Z,26.10
2018-06-05T06:32:12.826Z,25.70
2018-06-05T06:34:45.288Z,26.20
2018-06-05T06:37:17.671Z,26.40
2018-06-05T06:39:50.106Z,26.60
2018-06-05T06:42:22.920Z,26.70
2018-06-05T06:44:55.410Z,27.30
2018-06-05T06:47:27.884Z,27.00
2018-06-05T06:50:00.170Z,27.00
2018-06-05T06:52:32.311Z,27.40
2018-06-05T06:55:04.934Z,27.90
2018-06-05T06:57:37.420Z,27.90
2018-06-05T07:00:10.058Z,27.70
2018-06-05T07:02:42.209Z,27.90
2018-06-05T07:05:14.632Z,28.30
2018-06-05T07:07:46.954Z,28.60
2018-06-05T07:10:19.590Z,28.80
2018-06-05T07:12:51.888Z,29.00
2018-06-05T07:15:24.273Z,29.20
2018-06-05T07:17:56.676Z,29.50
2018-06-05T07:20:29.251Z,29.20
2018-06-05T07:23:01.412Z,29.70
2018-06-05T07:25:33.622Z,29.80
2018-06-05T07:28:06.098Z,30.00
2018-06-05T07:30:38.742Z,30.10
2018-06-05T07:33:10.861Z,30.00
2018-06-05T07:35:43.503Z,30.20
2018-06-05T07:38:15.820Z,30.70
2018-06-05T07:40:47.977Z,31.00
2018-06-05T07:43:20.317Z,31.20
2018-06-05T07:45:52.681Z,31.00
2018-06-05T07:48:25.305Z,31.50
2018-06-05T07:50:57.696Z,32.40
2018-06-05T07:53:30.017Z,32.10
2018-06-05T07:56:02.604Z,32.00
2018-06-05T07:58:35.076Z,32.70
2018-06-05T08:01:07.344Z,33.60
2018-06-05T08:03:39.717Z,33.60
2018-06-05T08:06:12.271Z,34.30
2018-06-05T08:08:44.665Z,35.20
2018-06-05T08:11:17.198Z,34.60
2018-06-05T08:13:49.830Z,35.60
2018-06-05T08:16:22.407Z,35.80
2018-06-05T08:18:54.724Z,35.90
2018-06-05T08:21:26.984Z,36.20
2018-06-05T08:23:59.492Z,36.30
2018-06-05T08:26:44.504Z,36.40
2018-06-05T08:29:16.929Z,36.30
2018-06-05T08:31:49.370Z,38.00
2018-06-05T08:34:21.484Z,37.20
2018-06-05T08:36:53.893Z,36.70
2018-06-05T08:39:26.143Z,36.20
2018-06-05T08:41:58.696Z,37.10
2018-06-05T08:44:31.099Z,37.90
2018-06-05T08:47:03.498Z,38.30
2018-06-05T08:49:35.848Z,38.30
2018-06-05T08:52:08.031Z,38.30
2018-06-05T08:54:40.151Z,39.00
2018-06-05T08:57:12.862Z,38.80
2018-06-05T08:59:45.095Z,39.40
2018-06-05T09:02:17.499Z,40.30
2018-06-05T09:04:50.041Z,40.00
2018-06-05T09:07:22.410Z,40.20
2018-06-05T09:09:56.636Z,40.40
2018-06-05T09:12:28.989Z,41.40
2018-06-05T09:15:01.164Z,41.90
2018-06-05T09:17:33.415Z,42.00
2018-06-05T09:20:05.942Z,42.70
2018-06-05T09:22:38.476Z,43.30
2018-06-05T09:25:10.656Z,43.40
2018-06-05T09:27:43.227Z,44.80
2018-06-05T09:30:16.092Z,45.30
2018-06-05T09:32:48.207Z,45.80
2018-06-05T09:35:20.336Z,46.40
2018-06-05T09:37:52.582Z,46.20
2018-06-05T09:40:25.055Z,47.20
2018-06-05T09:42:57.493Z,47.90
2018-06-05T09:45:29.812Z,47.20
2018-06-05T09:48:02.094Z,47.90
2018-06-05T09:50:34.443Z,48.00
2018-06-05T09:53:06.684Z,47.50
2018-06-05T09:55:38.993Z,48.60
2018-06-05T09:58:11.486Z,47.80
2018-06-05T10:00:48.776Z,49.20
2018-06-05T10:03:21.123Z,50.10
2018-06-05T10:05:53.385Z,50.10
2018-06-05T10:08:25.785Z,50.50
2018-06-05T10:10:57.960Z,50.90
2018-06-05T10:13:30.627Z,50.30
2018-06-05T10:16:03.925Z,51.00
2018-06-05T10:18:36.166Z,50.80
2018-06-05T10:21:08.501Z,51.10
2018-06-05T10:23:40.889Z,51.30
2018-06-05T10:26:13.209Z,51.60
2018-06-05T10:28:45.746Z,51.30
2018-06-05T10:31:18.020Z,51.80
2018-06-05T10:33:50.627Z,51.80
2018-06-05T10:36:24.227Z,52.20
2018-06-05T10:38:56.505Z,52.10
2018-06-05T10:41:28.872Z,52.20
2018-06-05T10:44:01.428Z,51.40
2018-06-05T10:46:33.982Z,51.30
2018-06-05T10:49:06.194Z,51.20
2018-06-05T10:51:38.752Z,50.70
2018-06-05T10:54:11.575Z,51.00
2018-06-05T10:56:44.118Z,51.60
2018-06-05T10:59:16.515Z,52.80
2018-06-05T11:01:48.824Z,52.20
2018-06-05T11:04:21.157Z,52.70
2018-06-05T11:06:53.309Z,53.60
2018-06-05T11:09:26.916Z,53.40
2018-06-05T11:11:59.224Z,54.40
2018-06-05T11:14:31.674Z,54.00
2018-06-05T11:17:03.983Z,53.80
2018-06-05T11:19:36.621Z,54.20
2018-06-05T11:22:09.155Z,54.30
2018-06-05T11:24:41.722Z,55.30
2018-06-05T11:27:14.141Z,55.30
2018-06-05T11:29:46.759Z,55.80
2018-06-05T11:32:18.992Z,56.00
2018-06-05T11:37:23.165Z,56.90
2018-06-05T11:39:55.632Z,56.50
2018-06-05T11:42:27.832Z,56.90
2018-06-05T11:45:00.015Z,57.10
2018-06-05T11:47:32.565Z,57.10
2018-06-05T11:50:04.820Z,57.00
2018-06-05T11:52:37.264Z,57.30
2018-06-05T11:55:09.698Z,57.20
2018-06-05T11:57:41.870Z,56.80
2018-06-05T12:00:14.318Z,56.50
2018-06-05T12:02:46.579Z,56.40
2018-06-05T12:05:19.008Z,56.40
2018-06-05T12:07:51.145Z,56.00
2018-06-05T12:10:23.670Z,56.00
2018-06-05T12:12:56.246Z,55.20
2018-06-05T12:15:28.351Z,55.10
2018-06-05T12:18:00.875Z,55.50
2018-06-05T12:20:33.452Z,56.70
2018-06-05T12:23:06.248Z,57.30
2018-06-05T12:25:38.656Z,57.50
2018-06-05T12:28:11.026Z,56.90
2018-06-05T12:30:43.433Z,57.30
2018-06-05T12:33:15.767Z,57.80
2018-06-05T12:35:48.181Z,58.20
2018-06-05T12:38:20.715Z,58.60
2018-06-05T12:40:53.521Z,58.90
2018-06-05T12:43:25.894Z,59.00
2018-06-05T12:45:58.404Z,59.10
2018-06-05T12:48:30.806Z,59.60
2018-06-05T12:51:02.793Z,60.20
2018-06-05T12:53:35.115Z,60.90
2018-06-05T12:56:07.734Z,60.40
2018-06-05T12:58:40.280Z,60.20
2018-06-05T13:01:12.511Z,60.40
2018-06-05T13:03:45.068Z,60.80
2018-06-05T13:06:17.430Z,60.90
2018-06-05T13:08:49.963Z,60.60
2018-06-05T13:11:22.383Z,60.40
2018-06-05T13:13:54.825Z,60.70
2018-06-05T13:16:27.021Z,60.40
2018-06-05T13:18:59.586Z,59.50
2018-06-05T13:21:33.397Z,58.40
2018-06-05T13:24:05.554Z,58.50
2018-06-05T13:26:37.726Z,58.80
2018-06-05T13:29:10.456Z,58.90
2018-06-05T13:31:42.883Z,59.20
2018-06-05T13:34:15.410Z,58.80
2018-06-05T13:36:47.795Z,59.10
2018-06-05T13:39:20.160Z,58.80
2018-06-05T13:41:52.764Z,58.60
2018-06-05T13:44:24.980Z,58.30
2018-06-05T13:46:57.080Z,58.90
2018-06-05T13:49:29.249Z,59.10
2018-06-05T13:52:01.638Z,60.00
2018-06-05T13:54:34.186Z,55.60
2018-06-05T13:57:06.439Z,54.80
2018-06-05T13:59:38.925Z,53.60
2018-06-05T14:02:11.111Z,53.10
2018-06-05T14:04:43.350Z,51.40
2018-06-05T14:07:15.677Z,48.60
2018-06-05T14:09:47.806Z,48.50
2018-06-05T14:12:19.815Z,47.30
2018-06-05T14:14:52.040Z,44.70
2018-06-05T14:17:24.425Z,44.10
2018-06-05T14:19:56.777Z,43.70
2018-06-05T14:22:28.986Z,43.00
2018-06-05T14:25:01.121Z,42.00
2018-06-05T14:27:33.297Z,42.80
2018-06-05T14:30:05.937Z,43.20
2018-06-05T14:32:39.478Z,44.10
2018-06-05T14:35:11.953Z,42.60
2018-06-05T14:37:44.416Z,41.40
2018-06-05T14:40:16.597Z,39.90
2018-06-05T14:42:49.172Z,38.50
2018-06-05T14:45:22.178Z,38.50
2018-06-05T14:47:54.512Z,36.40
2018-06-05T14:50:27.088Z,35.30
2018-06-05T14:52:59.496Z,37.80
2018-06-05T14:55:31.780Z,36.70
2018-06-05T14:58:04.449Z,37.30
2018-06-05T15:00:36.581Z,34.50
2018-06-05T15:03:09.605Z,31.30
2018-06-05T15:05:42.022Z,29.50
2018-06-05T15:08:14.288Z,26.10
2018-06-05T15:10:46.442Z,24.30
2018-06-05T15:13:18.427Z,22.80
2018-06-05T15:15:51.000Z,22.10
2018-06-05T15:18:23.573Z,21.60
2018-06-05T15:41:02.748Z,16.20
2018-06-05T15:43:35.004Z,14.00
2018-06-05T15:46:07.256Z,11.90
2018-06-05T15:48:39.643Z,13.70
2018-06-05T15:51:12.240Z,14.50
2018-06-05T15:53:44.796Z,14.70
2018-06-05T15:56:17.167Z,11.40
2018-06-05T15:58:49.706Z,10.50
2018-06-05T16:01:22.255Z,7.40
2018-06-05T16:03:54.484Z,8.80
2018-06-05T16:06:27.069Z,12.50
2018-06-05T16:08:59.411Z,11.70
2018-06-05T16:11:32.001Z,11.60
2018-06-05T16:14:04.832Z,11.80
2018-06-05T16:16:37.179Z,12.30
2018-06-05T16:19:09.721Z,11.70
2018-06-05T16:21:42.328Z,9.70
2018-06-05T16:24:15.090Z,8.60
2018-06-05T16:26:47.750Z,7.30
2018-06-05T16:29:20.026Z,6.60
2018-06-05T16:31:52.417Z,8.20
2018-06-05T16:34:25.169Z,5.40
2018-06-05T16:36:57.770Z,6.50
2018-06-05T16:39:29.963Z,6.20
2018-06-05T16:42:02.675Z,7.40
2018-06-05T16:44:35.053Z,6.30
2018-06-05T16:47:07.716Z,8.20
2018-06-05T16:52:11.279Z,5.80
2018-06-05T16:54:43.683Z,4.60
2018-06-05T16:57:16.028Z,2.00
2018-06-05T16:59:48.199Z,3.10
2018-06-05T17:02:20.628Z,5.00
2018-06-05T17:04:53.156Z,4.50
2018-06-05T17:07:25.654Z,3.50
2018-06-05T17:12:29.228Z,4.80
2018-06-05T17:15:01.376Z,3.30
2018-06-05T17:17:33.776Z,3.00
2018-06-05T17:20:06.353Z,2.30
2018-06-05T17:22:38.915Z,3.90
2018-06-05T17:25:11.292Z,3.50
2018-06-05T17:27:43.666Z,1.50
2018-06-05T17:30:16.225Z,2.50
2018-06-05T17:32:48.638Z,2.10
2018-06-05T17:35:21.579Z,4.50
2018-06-05T17:37:53.963Z,3.80
2018-06-05T17:40:26.114Z,8.00
2018-06-05T17:42:58.896Z,3.70
2018-06-05T17:45:31.303Z,1.80
2018-06-05T17:48:03.990Z,4.00
2018-06-05T17:50:36.524Z,1.00
2018-06-05T17:53:09.098Z,4.60
2018-06-05T17:55:42.241Z,2.30
2018-06-05T17:58:15.349Z,4.60
2018-06-05T18:00:47.872Z,4.80
2018-06-05T18:03:20.239Z,4.10
2018-06-05T18:05:52.694Z,2.60
2018-06-05T18:08:25.244Z,4.70
2018-06-05T18:10:57.594Z,5.80
2018-06-05T18:13:29.948Z,5.20
2018-06-05T18:16:02.497Z,7.20
2018-06-05T18:18:34.869Z,3.80
2018-06-05T18:21:07.120Z,3.40
2018-06-05T18:23:39.743Z,2.10
2018-06-05T18:26:12.266Z,1.00
2018-06-05T18:28:44.671Z,2.00
2018-06-05T18:31:17.077Z,1.80
2018-06-05T18:33:49.254Z,2.30
2018-06-05T18:36:22.444Z,4.70
2018-06-05T18:38:55.025Z,2.40
2018-06-05T18:41:27.577Z,1.00
2018-06-05T18:44:00.619Z,4.30
2018-06-05T18:46:32.886Z,2.10
2018-06-05T18:49:05.637Z,2.50
2018-06-05T18:54:09.038Z,4.40
2018-06-05T18:56:41.382Z,5.30
2018-06-05T18:59:13.757Z,3.40
2018-06-05T19:01:46.529Z,1.00
2018-06-05T19:04:19.154Z,4.70
2018-06-05T19:06:51.689Z,2.40
2018-06-05T19:09:24.006Z,4.50
2018-06-05T19:11:56.537Z,5.50
2018-06-05T19:14:29.316Z,1.40
2018-06-05T19:17:01.621Z,2.90
2018-06-05T19:22:05.150Z,3.70
2018-06-05T19:24:37.757Z,3.00
2018-06-05T19:27:10.368Z,2.50
2018-06-05T19:29:42.792Z,2.30
2018-06-05T19:32:14.846Z,5.30
2018-06-05T19:34:47.526Z,1.00
2018-06-05T19:37:19.993Z,7.40
2018-06-05T19:39:52.419Z,5.30
2018-06-05T19:42:24.826Z,2.50
2018-06-05T19:44:57.539Z,1.30
2018-06-05T19:47:30.011Z,1.60
2018-06-05T19:50:02.499Z,2.70
2018-06-05T19:52:34.842Z,1.10
2018-06-05T19:55:07.268Z,5.60
2018-06-05T19:57:39.618Z,4.30
2018-06-05T20:00:11.996Z,3.30
2018-06-05T20:02:44.199Z,4.90
2018-06-05T20:05:16.585Z,5.50
2018-06-05T20:07:48.878Z,7.10
2018-06-05T20:10:21.286Z,6.50
2018-06-05T20:12:53.928Z,5.40
2018-06-05T20:15:26.214Z,5.20
2018-06-05T20:17:57.635Z,7.60
2018-06-05T20:20:30.142Z,4.40
2018-06-05T20:23:02.416Z,3.70
2018-06-05T20:25:34.785Z,4.70
2018-06-05T20:28:07.053Z,5.80
2018-06-05T20:30:39.895Z,6.10
2018-06-05T20:33:12.194Z,8.20
2018-06-05T20:35:45.535Z,7.40
2018-06-05T20:38:17.980Z,5.80
2018-06-05T20:40:50.600Z,6.10
2018-06-05T20:43:22.721Z,5.00
2018-06-05T20:45:55.724Z,5.60
2018-06-05T20:48:28.476Z,4.90
2018-06-05T20:51:00.855Z,9.10
2018-06-05T20:53:33.024Z,5.70
2018-06-05T20:56:05.613Z,5.90
2018-06-05T20:58:38.141Z,7.20
2018-06-05T21:01:10.631Z,8.10
2018-06-05T21:03:43.240Z,7.30
2018-06-05T21:06:15.776Z,7.10
2018-06-05T21:08:48.158Z,6.10
2018-06-05T21:11:20.577Z,8.30
2018-06-05T21:13:54.018Z,5.10
2018-06-05T21:16:26.341Z,6.90
2018-06-05T21:18:58.734Z,4.60
2018-06-05T21:21:30.696Z,3.20
2018-06-05T21:24:03.103Z,3.90
2018-06-05T21:26:35.369Z,5.00
2018-06-05T21:29:07.883Z,3.70
2018-06-05T21:31:40.305Z,5.80
2018-06-05T21:34:12.662Z,5.90
2018-06-05T21:36:46.899Z,3.00
2018-06-05T21:39:19.230Z,4.80
2018-06-05T21:41:51.336Z,6.10
2018-06-05T21:44:23.950Z,4.60
2018-06-05T21:46:56.347Z,4.20
2018-06-05T21:49:28.453Z,5.60
2018-06-05T21:52:00.841Z,6.50
2018-06-05T21:54:33.186Z,4.10
2018-06-05T21:57:05.574Z,3.40
2018-06-05T21:59:38.134Z,4.80
2018-06-05T22:02:10.381Z,4.80
2018-06-05T22:04:42.480Z,4.20
2018-06-05T22:07:15.068Z,2.90
2018-06-05T22:09:47.650Z,1.60
2018-06-05T22:12:20.034Z,4.50
2018-06-05T22:14:52.161Z,4.00
2018-06-05T22:17:24.753Z,4.00
2018-06-05T22:19:57.391Z,5.40
2018-06-05T22:22:30.332Z,4.50
2018-06-05T22:25:02.469Z,4.70
2018-06-05T22:27:35.496Z,4.80
2018-06-05T22:30:07.994Z,2.80
2018-06-05T22:32:40.534Z,2.60
2018-06-05T22:35:12.874Z,3.80
2018-06-05T22:37:45.489Z,3.10
2018-06-05T22:40:18.874Z,6.10
2018-06-05T22:42:51.250Z,4.70
2018-06-05T22:45:23.380Z,5.40
2018-06-05T22:47:56.670Z,4.20
2018-06-05T22:50:28.771Z,3.40
2018-06-05T22:53:01.218Z,5.20
2018-06-05T22:55:33.943Z,3.30
2018-06-05T22:58:06.778Z,5.30
2018-06-05T23:00:39.242Z,3.40
2018-06-05T23:03:11.916Z,3.60
2018-06-05T23:05:44.436Z,5.20
2018-06-05T23:08:16.832Z,5.30
2018-06-05T23:13:20.560Z,5.50
2018-06-05T23:15:52.699Z,4.40
2018-06-05T23:18:24.914Z,5.70
2018-06-05T23:20:57.228Z,3.80
2018-06-05T23:23:29.568Z,4.30
2018-06-05T23:26:01.989Z,4.10
2018-06-05T23:28:34.594Z,4.20
2018-06-05T23:31:07.042Z,5.20
2018-06-05T23:33:39.186Z,3.30
2018-06-05T23:36:11.540Z,5.80
2018-06-05T23:38:43.843Z,3.30
2018-06-05T23:41:15.943Z,4.50
2018-06-05T23:43:48.569Z,3.60
2018-06-05T23:46:21.169Z,5.20
2018-06-05T23:48:53.773Z,5.30
2018-06-05T23:51:26.249Z,5.00
2018-06-05T23:53:58.696Z,5.80
2018-06-05T23:56:31.270Z,5.90
2018-06-05T23:59:03.484Z,4.30
